createdAt,value
2019-05-23T00:00:37.721Z,3.43
2019-05-23T00:03:07.673Z,3.57
2019-05-23T00:05:47.718Z,3.60
2019-05-23T00:08:19.147Z,3.50
2019-05-23T00:11:12.979Z,3.60
2019-05-23T00:13:43.853Z,3.50
2019-05-23T00:16:15.131Z,3.67
2019-05-23T00:18:45.104Z,3.67
2019-05-23T00:21:14.265Z,3.50
2019-05-23T00:23:43.324Z,3.60
2019-05-23T00:26:14.645Z,3.40
2019-05-23T00:28:44.436Z,3.27
2019-05-23T00:31:21.668Z,4.37
2019-05-23T00:33:51.621Z,3.53
2019-05-23T00:36:21.134Z,3.63
2019-05-23T00:38:51.916Z,3.73
2019-05-23T00:41:23.713Z,3.60
2019-05-23T00:43:53.626Z,3.90
2019-05-23T00:46:23.071Z,3.30
2019-05-23T00:48:53.787Z,3.80
2019-05-23T00:51:25.315Z,3.80
2019-05-23T00:53:54.410Z,4.60
2019-05-23T00:56:23.428Z,4.67
2019-05-23T00:58:52.395Z,3.80
2019-05-23T01:01:22.547Z,4.43
2019-05-23T01:03:52.870Z,4.03
2019-05-23T01:06:21.973Z,4.13
2019-05-23T01:08:51.751Z,4.10
2019-05-23T01:11:21.343Z,4.27
2019-05-23T01:13:50.190Z,3.80
2019-05-23T01:16:19.856Z,4.00
2019-05-23T01:18:50.157Z,4.20
2019-05-23T01:21:31.642Z,4.30
2019-05-23T01:24:19.585Z,4.43
2019-05-23T01:26:49.474Z,4.50
2019-05-23T01:29:19.462Z,4.37
2019-05-23T01:31:50.230Z,4.50
2019-05-23T01:34:19.556Z,4.77
2019-05-23T01:36:48.905Z,4.30
2019-05-23T01:39:19.126Z,4.63
2019-05-23T01:41:48.002Z,4.23
2019-05-23T01:44:17.923Z,4.70
2019-05-23T01:46:48.836Z,4.70
2019-05-23T01:49:18.884Z,4.30
2019-05-23T01:51:49.209Z,4.53
2019-05-23T01:54:19.041Z,4.30
2019-05-23T01:56:48.259Z,4.50
2019-05-23T01:59:26.184Z,4.70
2019-05-23T02:01:55.697Z,4.43
2019-05-23T02:04:24.575Z,4.60
2019-05-23T02:06:54.299Z,4.87
2019-05-23T02:09:23.602Z,5.10
2019-05-23T02:11:52.974Z,4.37
2019-05-23T02:14:22.091Z,4.57
2019-05-23T02:16:51.775Z,4.73
2019-05-23T02:19:20.819Z,4.60
2019-05-23T02:21:50.200Z,4.67
2019-05-23T02:24:20.853Z,5.00
2019-05-23T02:26:50.084Z,4.53
2019-05-23T02:29:20.450Z,5.03
2019-05-23T02:31:49.330Z,4.53
2019-05-23T02:34:19.990Z,5.40
2019-05-23T02:36:49.846Z,4.80
2019-05-23T02:39:37.924Z,4.63
2019-05-23T02:42:21.751Z,5.40
2019-05-23T02:44:51.245Z,5.20
2019-05-23T02:47:29.564Z,5.40
2019-05-23T02:50:00.082Z,5.03
2019-05-23T02:52:39.022Z,5.57
2019-05-23T02:55:12.965Z,5.63
2019-05-23T02:57:43.169Z,5.23
2019-05-23T03:00:56.032Z,5.17
2019-05-23T03:03:28.593Z,6.03
2019-05-23T03:06:00.106Z,5.40
2019-05-23T03:08:32.376Z,5.57
2019-05-23T03:11:20.066Z,6.33
2019-05-23T03:13:52.065Z,6.00
2019-05-23T03:16:24.156Z,6.00
2019-05-23T03:18:59.747Z,5.73
2019-05-23T03:21:29.226Z,5.90
2019-05-23T03:23:58.976Z,6.87
2019-05-23T03:26:47.797Z,6.00
2019-05-23T03:29:17.057Z,6.33
2019-05-23T03:31:51.393Z,5.97
2019-05-23T03:34:23.471Z,6.47
2019-05-23T03:36:53.361Z,6.77
2019-05-23T03:39:22.313Z,6.97
2019-05-23T03:41:51.072Z,5.93
2019-05-23T03:44:20.031Z,6.30
2019-05-23T03:46:51.172Z,6.83
2019-05-23T03:49:21.001Z,6.57
2019-05-23T03:51:50.832Z,6.93
2019-05-23T03:54:22.509Z,7.50
2019-05-23T03:56:52.473Z,7.93
2019-05-23T03:59:22.529Z,7.17
2019-05-23T04:01:52.366Z,6.80
2019-05-23T04:04:21.920Z,7.00
2019-05-23T04:06:51.008Z,6.90
2019-05-23T04:09:20.319Z,6.37
2019-05-23T04:11:49.244Z,7.10
2019-05-23T04:14:19.381Z,7.17
2019-05-23T04:16:48.409Z,7.30
2019-05-23T04:19:17.685Z,7.70
2019-05-23T04:21:46.636Z,7.30
2019-05-23T04:24:16.411Z,7.83
2019-05-23T04:26:45.979Z,8.10
2019-05-23T04:29:15.096Z,7.37
2019-05-23T04:31:43.947Z,7.23
2019-05-23T04:34:13.139Z,7.70
2019-05-23T04:36:43.879Z,7.40
2019-05-23T04:39:13.179Z,7.17
2019-05-23T04:41:42.103Z,7.90
2019-05-23T04:44:11.597Z,8.10
2019-05-23T04:46:40.652Z,8.20
2019-05-23T04:49:09.731Z,8.10
2019-05-23T04:51:38.697Z,7.87
2019-05-23T04:54:07.834Z,7.30
2019-05-23T04:56:36.649Z,7.97
2019-05-23T04:59:05.721Z,7.47
2019-05-23T05:01:35.419Z,7.90
2019-05-23T05:04:05.347Z,7.33
2019-05-23T05:06:34.824Z,7.60
2019-05-23T05:09:06.358Z,7.53
2019-05-23T05:11:35.534Z,7.43
2019-05-23T05:14:04.994Z,7.70
2019-05-23T05:16:34.163Z,7.63
2019-05-23T05:19:03.739Z,7.90
2019-05-23T05:21:52.122Z,7.60
2019-05-23T05:24:22.196Z,7.43
2019-05-23T05:26:50.970Z,7.43
2019-05-23T05:29:20.323Z,7.33
2019-05-23T05:31:49.257Z,8.00
2019-05-23T05:34:18.551Z,8.07
2019-05-23T05:36:47.633Z,7.33
2019-05-23T05:39:17.644Z,7.10
2019-05-23T05:41:46.836Z,7.70
2019-05-23T05:44:15.659Z,7.50
2019-05-23T05:46:44.629Z,6.60
2019-05-23T05:49:14.378Z,7.20
2019-05-23T05:51:43.763Z,6.97
2019-05-23T05:56:57.076Z,6.70
2019-05-23T05:59:25.934Z,6.97
2019-05-23T06:01:55.501Z,7.30
2019-05-23T06:04:24.382Z,7.27
2019-05-23T06:07:11.261Z,7.67
2019-05-23T06:09:41.648Z,7.77
2019-05-23T06:12:11.570Z,8.13
2019-05-23T06:14:40.513Z,7.87
2019-05-23T06:17:11.801Z,7.80
2019-05-23T06:19:41.054Z,7.70
2019-05-23T06:22:09.750Z,7.17
2019-05-23T06:24:47.325Z,8.33
2019-05-23T06:27:13.431Z,7.87
2019-05-23T06:29:42.253Z,8.00
2019-05-23T06:32:13.992Z,7.93
2019-05-23T06:34:43.117Z,8.20
2019-05-23T06:37:12.042Z,8.93
2019-05-23T06:39:41.548Z,8.50
2019-05-23T06:42:10.532Z,8.87
2019-05-23T06:44:39.872Z,8.00
2019-05-23T06:47:08.820Z,7.93
2019-05-23T06:49:37.748Z,8.97
2019-05-23T06:52:06.713Z,8.10
2019-05-23T06:54:35.549Z,9.33
2019-05-23T06:57:04.656Z,8.90
2019-05-23T06:59:33.627Z,8.33
2019-05-23T07:02:02.660Z,7.63
2019-05-23T07:04:31.808Z,8.10
2019-05-23T07:07:01.663Z,8.27
2019-05-23T07:09:30.794Z,8.60
2019-05-23T07:12:00.799Z,7.97
2019-05-23T07:14:31.138Z,8.57
2019-05-23T07:17:00.038Z,8.53
2019-05-23T07:19:28.993Z,8.80
2019-05-23T07:21:57.750Z,8.33
2019-05-23T07:24:27.464Z,8.40
2019-05-23T07:26:56.471Z,9.10
2019-05-23T07:29:25.759Z,8.30
2019-05-23T07:31:54.957Z,8.00
2019-05-23T07:34:23.977Z,9.07
2019-05-23T07:36:53.552Z,7.70
2019-05-23T07:39:22.387Z,8.63
2019-05-23T07:41:51.312Z,7.40
2019-05-23T07:44:21.300Z,7.17
2019-05-23T07:46:50.903Z,8.10
2019-05-23T07:49:19.734Z,7.83
2019-05-23T07:51:48.557Z,6.90
2019-05-23T07:54:35.097Z,7.20
2019-05-23T07:57:04.966Z,6.50
2019-05-23T07:59:34.162Z,6.67
2019-05-23T08:02:25.674Z,6.53
2019-05-23T08:04:53.345Z,7.27
2019-05-23T08:07:22.623Z,5.87
2019-05-23T08:09:51.648Z,6.47
2019-05-23T08:12:20.839Z,6.33
2019-05-23T08:14:49.902Z,5.53
2019-05-23T08:17:19.190Z,5.97
2019-05-23T08:19:50.202Z,6.30
2019-05-23T08:22:18.775Z,6.43
2019-05-23T08:24:51.095Z,5.97
2019-05-23T08:27:18.600Z,5.40
2019-05-23T08:29:47.604Z,5.50
2019-05-23T08:32:16.831Z,5.67
2019-05-23T08:34:45.728Z,5.03
2019-05-23T08:37:15.620Z,5.10
2019-05-23T08:39:45.280Z,4.80
2019-05-23T08:42:15.540Z,4.47
2019-05-23T08:44:45.490Z,5.23
2019-05-23T08:47:15.251Z,4.17
2019-05-23T08:49:44.116Z,4.07
2019-05-23T08:52:12.959Z,5.17
2019-05-23T08:54:41.858Z,4.77
2019-05-23T08:57:11.100Z,4.80
2019-05-23T08:59:40.404Z,4.10
2019-05-23T09:02:09.662Z,5.13
2019-05-23T09:04:38.766Z,4.90
2019-05-23T09:07:09.171Z,4.30
2019-05-23T09:09:38.469Z,4.70
2019-05-23T09:12:07.378Z,4.40
2019-05-23T09:14:36.863Z,4.23
2019-05-23T09:17:06.003Z,4.47
2019-05-23T09:19:34.850Z,4.30
2019-05-23T09:22:03.961Z,4.60
2019-05-23T09:24:32.938Z,4.60
2019-05-23T09:27:01.739Z,5.13
2019-05-23T09:29:30.620Z,4.40
2019-05-23T09:31:59.538Z,3.70
2019-05-23T09:34:28.504Z,3.93
2019-05-23T09:37:00.302Z,4.53
2019-05-23T09:39:28.493Z,4.40
2019-05-23T09:41:57.309Z,3.97
2019-05-23T09:44:26.231Z,3.90
2019-05-23T09:46:55.361Z,3.83
2019-05-23T09:49:24.529Z,3.60
2019-05-23T09:51:58.404Z,3.10
2019-05-23T09:54:25.324Z,3.60
2019-05-23T09:56:54.262Z,3.60
2019-05-23T09:59:23.099Z,2.97
2019-05-23T10:01:51.969Z,2.70
2019-05-23T10:04:20.771Z,2.87
2019-05-23T10:06:49.705Z,2.50
2019-05-23T10:09:18.483Z,2.80
2019-05-23T10:11:47.529Z,2.90
2019-05-23T10:14:21.056Z,3.17
2019-05-23T10:16:49.896Z,2.23
2019-05-23T10:19:18.616Z,2.00
2019-05-23T10:21:47.517Z,2.13
2019-05-23T10:24:16.364Z,1.73
2019-05-23T10:26:45.127Z,2.00
2019-05-23T10:29:13.922Z,1.83
2019-05-23T10:31:42.719Z,2.10
2019-05-23T10:34:11.617Z,2.20
2019-05-23T10:36:40.436Z,1.93
2019-05-23T10:39:12.758Z,2.00
2019-05-23T10:41:41.805Z,1.50
2019-05-23T10:44:10.791Z,1.73
2019-05-23T10:46:39.945Z,1.80
2019-05-23T10:49:08.774Z,1.40
2019-05-23T10:51:37.567Z,1.60
2019-05-23T10:54:06.541Z,1.60
2019-05-23T10:56:35.775Z,1.50
2019-05-23T10:59:05.155Z,1.73
2019-05-23T11:01:35.078Z,2.10
2019-05-23T11:04:04.570Z,1.40
2019-05-23T11:06:34.452Z,1.57
2019-05-23T11:09:06.400Z,1.40
2019-05-23T11:11:35.389Z,1.60
2019-05-23T11:14:08.233Z,1.43
2019-05-23T11:16:35.888Z,2.00
2019-05-23T11:19:06.463Z,2.03
2019-05-23T11:21:35.196Z,1.90
2019-05-23T11:24:05.448Z,1.83
2019-05-23T11:26:34.353Z,2.00
2019-05-23T11:29:03.397Z,1.70
2019-05-23T11:31:32.787Z,1.70
2019-05-23T11:34:01.619Z,1.70
2019-05-23T11:36:36.289Z,2.03
2019-05-23T11:39:00.871Z,2.00
2019-05-23T11:41:30.192Z,2.13
2019-05-23T11:43:58.944Z,2.23
2019-05-23T11:46:31.722Z,1.90
2019-05-23T11:49:00.774Z,1.70
2019-05-23T11:51:30.040Z,1.60
2019-05-23T11:54:07.757Z,1.70
2019-05-23T11:56:29.737Z,1.80
2019-05-23T11:59:01.455Z,2.07
2019-05-23T12:01:48.553Z,1.70
2019-05-23T12:04:19.603Z,2.10
2019-05-23T12:07:06.464Z,1.80
2019-05-23T12:09:35.429Z,1.93
2019-05-23T12:12:04.559Z,1.80
2019-05-23T12:14:33.560Z,2.00
2019-05-23T12:17:02.405Z,1.90
2019-05-23T12:19:32.208Z,2.13
2019-05-23T12:22:01.384Z,1.80
2019-05-23T12:24:34.434Z,2.13
2019-05-23T12:27:00.830Z,1.90
2019-05-23T12:29:29.674Z,1.63
2019-05-23T12:31:58.766Z,2.13
2019-05-23T12:34:27.552Z,1.90
2019-05-23T12:37:17.209Z,2.33
2019-05-23T12:39:26.959Z,2.07
2019-05-23T12:41:55.755Z,2.30
2019-05-23T12:44:24.530Z,1.80
2019-05-23T12:46:53.382Z,1.90
2019-05-23T12:49:33.123Z,2.00
2019-05-23T12:52:02.654Z,1.93
2019-05-23T12:54:32.719Z,1.93
2019-05-23T12:57:01.959Z,1.97
2019-05-23T12:59:31.065Z,2.20
2019-05-23T13:02:01.805Z,2.13
2019-05-23T13:04:30.818Z,2.23
2019-05-23T13:06:59.859Z,2.10
2019-05-23T13:09:29.011Z,2.13
2019-05-23T13:11:58.336Z,1.97
2019-05-23T13:14:27.976Z,2.13
2019-05-23T13:17:00.759Z,2.20
2019-05-23T13:19:27.977Z,1.80
2019-05-23T13:21:57.164Z,2.10
2019-05-23T13:24:26.234Z,1.90
2019-05-23T13:26:55.610Z,2.03
2019-05-23T13:29:25.059Z,1.83
2019-05-23T13:31:54.457Z,1.70
2019-05-23T13:34:23.256Z,2.20
2019-05-23T13:36:52.302Z,2.73
2019-05-23T13:39:21.485Z,1.90
2019-05-23T13:41:50.336Z,2.20
2019-05-23T13:44:33.094Z,2.30
2019-05-23T13:46:50.377Z,1.87
2019-05-23T13:49:19.367Z,1.80
2019-05-23T13:51:48.807Z,2.10
2019-05-23T13:54:17.998Z,2.23
2019-05-23T13:56:48.081Z,2.00
2019-05-23T13:59:17.194Z,2.27
2019-05-23T14:01:46.052Z,2.10
2019-05-23T14:04:15.438Z,2.13
2019-05-23T14:06:44.301Z,1.90
2019-05-23T14:09:13.287Z,1.90
2019-05-23T14:11:42.563Z,2.03
2019-05-23T14:14:11.745Z,2.50
2019-05-23T14:16:50.550Z,2.20
2019-05-23T14:19:19.533Z,2.50
2019-05-23T14:21:48.374Z,1.90
2019-05-23T14:24:17.174Z,2.03
2019-05-23T14:26:53.275Z,1.77
2019-05-23T14:29:22.223Z,2.00
2019-05-23T14:32:00.240Z,1.93
2019-05-23T14:34:29.236Z,2.50
2019-05-23T14:37:14.794Z,2.00
2019-05-23T14:39:45.415Z,1.97
2019-05-23T14:42:45.889Z,1.80
2019-05-23T14:45:32.799Z,1.50
2019-05-23T14:48:12.199Z,1.90
2019-05-23T14:51:04.874Z,2.20
2019-05-23T14:53:35.946Z,1.80
2019-05-23T14:56:05.406Z,1.90
2019-05-23T14:58:34.977Z,2.10
2019-05-23T15:01:04.700Z,2.03
2019-05-23T15:03:35.878Z,1.90
2019-05-23T15:06:04.295Z,1.80
2019-05-23T15:08:49.488Z,1.70
2019-05-23T15:11:04.009Z,2.00
2019-05-23T15:13:32.802Z,1.70
2019-05-23T15:16:01.571Z,1.90
2019-05-23T15:18:30.482Z,1.90
2019-05-23T15:20:59.577Z,2.03
2019-05-23T15:23:28.512Z,1.90
2019-05-23T15:25:57.374Z,1.70
2019-05-23T15:28:26.257Z,2.00
2019-05-23T15:30:55.297Z,2.33
2019-05-23T15:33:24.111Z,1.60
2019-05-23T15:35:53.285Z,1.70
2019-05-23T15:38:22.116Z,2.90
2019-05-23T15:40:50.970Z,2.17
2019-05-23T15:43:19.961Z,2.00
2019-05-23T15:45:49.261Z,1.80
2019-05-23T15:48:18.300Z,1.87
2019-05-23T15:50:50.540Z,1.70
2019-05-23T15:53:39.389Z,1.80
2019-05-23T15:56:26.780Z,2.10
2019-05-23T15:58:50.763Z,1.60
2019-05-23T16:01:38.775Z,1.70
2019-05-23T16:04:11.175Z,1.67
2019-05-23T16:06:41.108Z,1.43
2019-05-23T16:09:27.530Z,1.47
2019-05-23T16:11:43.730Z,1.70
2019-05-23T16:14:12.797Z,1.93
2019-05-23T16:16:42.084Z,1.70
2019-05-23T16:19:11.310Z,1.60
2019-05-23T16:21:40.385Z,1.60
2019-05-23T16:24:09.948Z,1.60
2019-05-23T16:26:39.459Z,1.70
2019-05-23T16:29:09.628Z,1.60
2019-05-23T16:31:39.407Z,1.60
2019-05-23T16:34:08.545Z,1.73
2019-05-23T16:36:37.380Z,1.50
2019-05-23T16:39:07.878Z,1.50
2019-05-23T16:41:36.654Z,1.77
2019-05-23T16:44:06.306Z,1.80
2019-05-23T16:46:35.327Z,1.80
2019-05-23T16:49:04.264Z,1.60
2019-05-23T16:51:33.174Z,1.70
2019-05-23T16:54:02.961Z,1.60
2019-05-23T16:56:37.636Z,1.90
2019-05-23T16:59:20.311Z,1.83
2019-05-23T17:02:07.274Z,1.70
2019-05-23T17:04:59.476Z,1.70
2019-05-23T17:07:33.337Z,1.90
2019-05-23T17:10:09.570Z,1.60
2019-05-23T17:12:55.549Z,1.40
2019-05-23T17:15:42.534Z,1.80
2019-05-23T17:18:34.003Z,1.60
2019-05-23T17:21:12.565Z,1.57
2019-05-23T17:23:56.176Z,1.90
2019-05-23T17:26:50.213Z,1.60
2019-05-23T17:29:27.190Z,1.43
2019-05-23T17:31:56.860Z,1.37
2019-05-23T17:34:25.659Z,1.77
2019-05-23T17:36:54.682Z,1.80
2019-05-23T17:39:24.680Z,1.40
2019-05-23T17:41:53.732Z,1.50
2019-05-23T17:44:22.696Z,1.50
2019-05-23T17:46:51.572Z,1.50
2019-05-23T17:49:20.625Z,1.40
2019-05-23T17:51:49.473Z,1.57
2019-05-23T17:54:19.030Z,1.50
2019-05-23T17:56:48.327Z,1.70
2019-05-23T17:59:17.263Z,1.80
2019-05-23T18:01:46.299Z,1.67
2019-05-23T18:04:15.671Z,1.60
2019-05-23T18:06:44.741Z,1.50
2019-05-23T18:09:14.857Z,1.47
2019-05-23T18:11:43.757Z,1.60
2019-05-23T18:14:12.659Z,1.60
2019-05-23T18:16:44.509Z,1.90
2019-05-23T18:19:13.994Z,1.60
2019-05-23T18:21:45.428Z,1.70
2019-05-23T18:24:14.706Z,1.60
2019-05-23T18:26:45.986Z,1.47
2019-05-23T18:29:15.581Z,2.27
2019-05-23T18:31:45.490Z,2.13
2019-05-23T18:34:15.006Z,1.60
2019-05-23T18:36:45.202Z,1.50
2019-05-23T18:39:16.541Z,1.47
2019-05-23T18:41:46.488Z,1.40
2019-05-23T18:44:15.388Z,1.50
2019-05-23T18:46:47.147Z,1.50
2019-05-23T18:49:16.347Z,1.60
2019-05-23T18:51:46.779Z,20.53
2019-05-23T18:54:15.901Z,8.60
2019-05-23T18:56:46.635Z,2.30
2019-05-23T18:59:15.939Z,2.00
2019-05-23T19:01:44.842Z,1.60
2019-05-23T19:04:14.170Z,1.60
2019-05-23T19:06:43.249Z,1.90
2019-05-23T19:09:15.527Z,1.80
2019-05-23T19:11:44.942Z,1.80
2019-05-23T19:14:13.909Z,1.63
2019-05-23T19:16:42.813Z,1.93
2019-05-23T19:19:11.770Z,2.30
2019-05-23T19:21:40.778Z,2.03
2019-05-23T19:24:11.948Z,2.00
2019-05-23T19:26:41.452Z,9.63
2019-05-23T19:29:10.958Z,5.83
2019-05-23T19:31:39.893Z,2.43
2019-05-23T19:34:09.078Z,2.03
2019-05-23T19:36:38.288Z,2.30
2019-05-23T19:39:09.650Z,2.20
2019-05-23T19:41:39.514Z,2.10
2019-05-23T19:44:08.450Z,2.30
2019-05-23T19:46:37.404Z,2.47
2019-05-23T19:49:06.954Z,2.17
2019-05-23T19:51:35.966Z,2.30
2019-05-23T19:54:08.258Z,2.50
2019-05-23T19:56:37.230Z,2.30
2019-05-23T19:59:06.322Z,2.30
2019-05-23T20:01:48.094Z,2.50
2019-05-23T20:04:17.020Z,2.57
2019-05-23T20:06:46.031Z,2.60
2019-05-23T20:09:18.356Z,2.40
2019-05-23T20:11:54.375Z,2.73
2019-05-23T20:14:17.759Z,2.47
2019-05-23T20:16:46.804Z,2.80
2019-05-23T20:19:15.780Z,2.80
2019-05-23T20:21:44.689Z,3.10
2019-05-23T20:24:13.521Z,2.90
2019-05-23T20:26:42.813Z,2.83
2019-05-23T20:29:11.716Z,3.37
2019-05-23T20:31:41.339Z,2.90
2019-05-23T20:34:10.282Z,3.00
2019-05-23T20:36:39.125Z,2.70
2019-05-23T20:39:08.258Z,2.60
2019-05-23T20:41:37.866Z,2.60
2019-05-23T20:44:06.907Z,2.43
2019-05-23T20:46:35.796Z,2.70
2019-05-23T20:49:04.798Z,2.83
2019-05-23T20:51:34.425Z,2.60
2019-05-23T20:54:03.249Z,2.70
2019-05-23T20:56:32.016Z,3.00
2019-05-23T20:59:01.022Z,2.50
2019-05-23T21:01:37.790Z,3.20
2019-05-23T21:04:06.858Z,3.07
2019-05-23T21:06:35.720Z,3.87
2019-05-23T21:09:06.613Z,3.20
2019-05-23T21:11:35.590Z,3.00
2019-05-23T21:14:04.644Z,3.10
2019-05-23T21:16:33.596Z,3.60
2019-05-23T21:19:02.465Z,3.30
2019-05-23T21:21:31.453Z,3.03
2019-05-23T21:24:00.322Z,3.33
2019-05-23T21:26:29.161Z,2.80
2019-05-23T21:28:57.949Z,3.20
2019-05-23T21:31:26.812Z,2.60
2019-05-23T21:33:55.676Z,2.60
2019-05-23T21:36:24.489Z,2.70
2019-05-23T21:38:53.260Z,2.70
2019-05-23T21:41:22.128Z,3.23
2019-05-23T21:43:52.870Z,2.90
2019-05-23T21:46:21.687Z,2.97
2019-05-23T21:48:50.409Z,3.03
2019-05-23T21:51:19.165Z,3.10
2019-05-23T21:53:48.129Z,2.97
2019-05-23T21:56:16.919Z,3.10
2019-05-23T21:58:45.728Z,2.80
2019-05-23T22:01:49.264Z,3.00
2019-05-23T22:04:26.321Z,3.17
2019-05-23T22:06:57.319Z,3.13
2019-05-23T22:09:26.269Z,3.37
2019-05-23T22:11:55.489Z,3.67
2019-05-23T22:14:24.485Z,3.00
2019-05-23T22:16:53.379Z,2.97
2019-05-23T22:19:22.765Z,3.50
2019-05-23T22:21:51.592Z,3.53
2019-05-23T22:24:21.072Z,2.80
2019-05-23T22:26:50.056Z,3.10
2019-05-23T22:29:20.088Z,3.20
2019-05-23T22:31:49.025Z,3.20
2019-05-23T22:34:25.161Z,3.20
2019-05-23T22:37:03.845Z,3.53
2019-05-23T22:39:32.973Z,3.23
2019-05-23T22:42:02.305Z,3.97
2019-05-23T22:44:31.141Z,3.50
2019-05-23T22:47:00.067Z,3.60
2019-05-23T22:49:28.976Z,3.47
2019-05-23T22:51:57.767Z,3.53
2019-05-23T22:54:26.653Z,3.30
2019-05-23T22:56:55.499Z,3.50
2019-05-23T22:59:24.308Z,3.57
2019-05-23T23:01:53.092Z,3.60
2019-05-23T23:04:22.552Z,3.57
2019-05-23T23:06:51.444Z,4.03
2019-05-23T23:09:20.658Z,3.90
2019-05-23T23:11:49.565Z,3.60
2019-05-23T23:14:18.468Z,3.80
2019-05-23T23:16:47.686Z,3.90
2019-05-23T23:19:16.578Z,4.40
2019-05-23T23:21:45.416Z,4.17
2019-05-23T23:24:14.228Z,4.00
2019-05-23T23:26:43.224Z,3.70
2019-05-23T23:29:12.317Z,4.57
2019-05-23T23:31:41.160Z,4.60
2019-05-23T23:34:09.988Z,4.43
2019-05-23T23:36:38.938Z,4.40
2019-05-23T23:39:08.043Z,4.40
2019-05-23T23:41:37.124Z,4.00
2019-05-23T23:44:08.629Z,4.67
2019-05-23T23:46:55.451Z,4.23
2019-05-23T23:49:42.435Z,5.00
2019-05-23T23:52:29.332Z,4.00
2019-05-23T23:55:15.950Z,4.77
2019-05-23T23:57:59.082Z,3.97
